sensor_id;sensor_type;location;lat;lon;timestamp;pressure;altitude;pressure_sealevel;temperature;humidity
6833;BME280;3454;42.654;23.378;2023-03-01T00:01:08;94946.78;;;6.89;100.00
6833;BME280;3454;42.654;23.378;2023-03-01T00:03:34;94954.59;;;6.99;100.00
6833;BME280;3454;42.654;23.378;2023-03-01T00:06:00;94944.38;;;6.88;100.00
6833;BME280;3454;42.654;23.378;2023-03-01T00:08:27;94937.31;;;6.93;100.00
6833;BME280;3454;42.654;23.378;2023-03-01T00:13:43;94925.66;;;6.77;100.00
6833;BME280;3454;42.654;23.378;2023-03-01T00:16:15;94931.41;;;6.79;100.00
6833;BME280;3454;42.654;23.378;2023-03-01T00:18:41;94929.81;;;6.78;100.00
6833;BME280;3454;42.654;23.378;2023-03-01T00:21:07;94926.06;;;6.84;100.00
6833;BME280;3454;42.654;23.378;2023-03-01T00:23:34;94919.00;;;6.76;100.00
6833;BME280;3454;42.654;23.378;2023-03-01T00:26:00;94908.91;;;6.76;100.00
6833;BME280;3454;42.654;23.378;2023-03-01T00:28:25;94901.72;;;6.70;100.00
6833;BME280;3454;42.654;23.378;2023-03-01T00:30:51;94917.50;;;6.87;100.00
6833;BME280;3454;42.654;23.378;2023-03-01T00:33:17;94915.84;;;6.86;100.00
6833;BME280;3454;42.654;23.378;2023-03-01T00:35:43;94911.63;;;6.86;100.00
6833;BME280;3454;42.654;23.378;2023-03-01T00:38:08;94918.91;;;6.91;100.00
6833;BME280;3454;42.654;23.378;2023-03-01T00:40:35;94920.91;;;6.98;100.00
6833;BME280;3454;42.654;23.378;2023-03-01T00:43:00;94904.16;;;6.85;100.00
6833;BME280;3454;42.654;23.378;2023-03-01T00:45:26;94904.94;;;6.85;100.00
6833;BME280;3454;42.654;23.378;2023-03-01T00:47:52;94914.63;;;6.91;100.00
6833;BME280;3454;42.654;23.378;2023-03-01T00:50:18;94908.38;;;6.97;100.00
6833;BME280;3454;42.654;23.378;2023-03-01T00:52:44;94916.88;;;6.96;100.00
6833;BME280;3454;42.654;23.378;2023-03-01T00:55:10;94908.56;;;6.81;100.00
6833;BME280;3454;42.654;23.378;2023-03-01T00:57:37;94897.47;;;6.84;100.00
6833;BME280;3454;42.654;23.378;2023-03-01T01:00:07;94882.53;;;6.81;100.00
6833;BME280;3454;42.654;23.378;2023-03-01T01:02:35;94901.41;;;6.88;100.00
6833;BME280;3454;42.654;23.378;2023-03-01T01:05:00;94897.06;;;6.77;100.00
6833;BME280;3454;42.654;23.378;2023-03-01T01:07:26;94899.09;;;6.72;100.00
6833;BME280;3454;42.654;23.378;2023-03-01T01:09:51;94887.75;;;6.77;100.00
6833;BME280;3454;42.654;23.378;2023-03-01T01:12:16;94902.81;;;6.79;100.00
6833;BME280;3454;42.654;23.378;2023-03-01T01:14:42;94904.31;;;6.69;100.00
6833;BME280;3454;42.654;23.378;2023-03-01T01:17:07;94898.16;;;6.73;100.00
6833;BME280;3454;42.654;23.378;2023-03-01T01:19:33;94885.88;;;6.68;100.00
6833;BME280;3454;42.654;23.378;2023-03-01T01:21:58;94899.69;;;6.75;100.00
6833;BME280;3454;42.654;23.378;2023-03-01T01:24:23;94902.31;;;6.61;100.00
6833;BME280;3454;42.654;23.378;2023-03-01T01:26:49;94912.13;;;6.78;100.00
6833;BME280;3454;42.654;23.378;2023-03-01T01:29:15;94906.06;;;6.81;100.00
6833;BME280;3454;42.654;23.378;2023-03-01T01:31:43;94927.19;;;6.80;100.00
6833;BME280;3454;42.654;23.378;2023-03-01T01:34:13;94919.78;;;6.77;100.00
6833;BME280;3454;42.654;23.378;2023-03-01T01:36:40;94914.03;;;6.62;100.00
6833;BME280;3454;42.654;23.378;2023-03-01T01:39:05;94913.94;;;6.64;100.00
6833;BME280;3454;42.654;23.378;2023-03-01T01:41:32;94902.41;;;6.47;100.00
6833;BME280;3454;42.654;23.378;2023-03-01T01:49:34;94916.03;;;6.57;100.00
6833;BME280;3454;42.654;23.378;2023-03-01T01:52:05;94923.13;;;6.65;100.00
6833;BME280;3454;42.654;23.378;2023-03-01T01:54:40;94917.44;;;6.49;100.00
6833;BME280;3454;42.654;23.378;2023-03-01T01:57:32;94910.19;;;6.57;100.00
6833;BME280;3454;42.654;23.378;2023-03-01T01:59:58;94913.66;;;6.68;100.00
6833;BME280;3454;42.654;23.378;2023-03-01T02:02:26;94914.53;;;6.67;100.00
6833;BME280;3454;42.654;23.378;2023-03-01T02:05:00;94932.03;;;6.70;100.00
6833;BME280;3454;42.654;23.378;2023-03-01T02:07:29;94933.03;;;6.68;100.00
6833;BME280;3454;42.654;23.378;2023-03-01T02:09:55;94922.72;;;6.58;100.00
6833;BME280;3454;42.654;23.378;2023-03-01T02:12:23;94915.25;;;6.69;100.00
6833;BME280;3454;42.654;23.378;2023-03-01T02:14:49;94900.91;;;6.57;100.00
6833;BME280;3454;42.654;23.378;2023-03-01T02:17:16;94908.19;;;6.74;100.00
6833;BME280;3454;42.654;23.378;2023-03-01T02:22:34;94913.22;;;6.62;100.00
6833;BME280;3454;42.654;23.378;2023-03-01T02:30:33;94911.00;;;6.70;100.00
6833;BME280;3454;42.654;23.378;2023-03-01T02:33:00;94916.34;;;6.65;100.00
6833;BME280;3454;42.654;23.378;2023-03-01T02:35:37;94921.81;;;6.72;100.00
6833;BME280;3454;42.654;23.378;2023-03-01T02:38:06;94922.66;;;6.72;100.00
6833;BME280;3454;42.654;23.378;2023-03-01T02:40:34;94923.94;;;6.65;100.00
6833;BME280;3454;42.654;23.378;2023-03-01T02:43:01;94919.81;;;6.64;100.00
6833;BME280;3454;42.654;23.378;2023-03-01T02:45:29;94910.41;;;6.66;100.00
6833;BME280;3454;42.654;23.378;2023-03-01T02:47:56;94890.50;;;6.62;100.00
6833;BME280;3454;42.654;23.378;2023-03-01T02:55:21;94872.81;;;6.49;100.00
6833;BME280;3454;42.654;23.378;2023-03-01T02:57:47;94848.94;;;6.28;100.00
6833;BME280;3454;42.654;23.378;2023-03-01T03:00:29;94889.59;;;6.50;100.00
6833;BME280;3454;42.654;23.378;2023-03-01T03:02:56;94899.78;;;6.49;100.00
6833;BME280;3454;42.654;23.378;2023-03-01T03:05:29;94884.22;;;6.30;100.00
6833;BME280;3454;42.654;23.378;2023-03-01T03:07:55;94868.34;;;6.40;100.00
6833;BME280;3454;42.654;23.378;2023-03-01T03:10:25;94879.69;;;6.47;100.00
6833;BME280;3454;42.654;23.378;2023-03-01T03:12:57;94886.25;;;6.50;100.00
6833;BME280;3454;42.654;23.378;2023-03-01T03:15:24;94878.66;;;6.37;100.00
6833;BME280;3454;42.654;23.378;2023-03-01T03:17:50;94876.44;;;6.45;100.00
6833;BME280;3454;42.654;23.378;2023-03-01T03:20:18;94890.00;;;6.44;100.00
6833;BME280;3454;42.654;23.378;2023-03-01T03:22:50;94899.34;;;6.42;100.00
6833;BME280;3454;42.654;23.378;2023-03-01T03:25:19;94902.28;;;6.49;100.00
6833;BME280;3454;42.654;23.378;2023-03-01T03:27:46;94904.03;;;6.48;100.00
6833;BME280;3454;42.654;23.378;2023-03-01T03:30:15;94906.22;;;6.40;100.00
6833;BME280;3454;42.654;23.378;2023-03-01T03:32:43;94896.22;;;6.39;100.00
6833;BME280;3454;42.654;23.378;2023-03-01T03:35:32;94898.75;;;6.39;100.00
6833;BME280;3454;42.654;23.378;2023-03-01T03:37:59;94896.81;;;6.42;100.00
6833;BME280;3454;42.654;23.378;2023-03-01T03:40:33;94907.56;;;6.46;100.00
6833;BME280;3454;42.654;23.378;2023-03-01T03:42:59;94912.91;;;6.41;100.00
6833;BME280;3454;42.654;23.378;2023-03-01T03:45:25;94902.97;;;6.38;100.00
6833;BME280;3454;42.654;23.378;2023-03-01T03:50:35;94914.09;;;6.36;100.00
6833;BME280;3454;42.654;23.378;2023-03-01T03:53:03;94905.81;;;6.34;100.00
6833;BME280;3454;42.654;23.378;2023-03-01T03:55:29;94901.66;;;6.33;100.00
6833;BME280;3454;42.654;23.378;2023-03-01T04:00:45;94913.72;;;6.42;100.00
6833;BME280;3454;42.654;23.378;2023-03-01T04:03:12;94893.19;;;6.34;100.00
6833;BME280;3454;42.654;23.378;2023-03-01T04:05:39;94918.06;;;6.40;100.00
6833;BME280;3454;42.654;23.378;2023-03-01T04:08:06;94923.72;;;6.43;100.00
6833;BME280;3454;42.654;23.378;2023-03-01T04:10:43;94870.84;;;6.15;100.00
6833;BME280;3454;42.654;23.378;2023-03-01T04:13:12;94916.41;;;6.39;100.00
6833;BME280;3454;42.654;23.378;2023-03-01T04:15:38;94929.34;;;6.47;100.00
6833;BME280;3454;42.654;23.378;2023-03-01T04:18:04;94923.88;;;6.40;100.00
6833;BME280;3454;42.654;23.378;2023-03-01T04:20:32;94924.31;;;6.47;100.00
6833;BME280;3454;42.654;23.378;2023-03-01T04:23:06;94919.06;;;6.50;100.00
6833;BME280;3454;42.654;23.378;2023-03-01T04:26:02;94929.59;;;6.56;100.00
6833;BME280;3454;42.654;23.378;2023-03-01T04:28:28;94930.78;;;6.51;100.00
6833;BME280;3454;42.654;23.378;2023-03-01T04:30:56;94924.13;;;6.50;100.00
6833;BME280;3454;42.654;23.378;2023-03-01T04:33:23;94920.78;;;6.49;100.00
6833;BME280;3454;42.654;23.378;2023-03-01T04:35:49;94940.91;;;6.63;100.00
6833;BME280;3454;42.654;23.378;2023-03-01T04:38:16;94921.28;;;6.42;100.00
6833;BME280;3454;42.654;23.378;2023-03-01T04:40:42;94914.31;;;6.45;100.00
6833;BME280;3454;42.654;23.378;2023-03-01T04:43:09;94905.91;;;6.32;100.00
6833;BME280;3454;42.654;23.378;2023-03-01T04:45:35;94907.94;;;6.27;100.00
6833;BME280;3454;42.654;23.378;2023-03-01T04:48:01;94907.72;;;6.30;100.00
6833;BME280;3454;42.654;23.378;2023-03-01T04:50:27;94926.75;;;6.48;100.00
6833;BME280;3454;42.654;23.378;2023-03-01T04:52:52;94928.97;;;6.53;100.00
6833;BME280;3454;42.654;23.378;2023-03-01T04:55:18;94926.84;;;6.47;100.00
6833;BME280;3454;42.654;23.378;2023-03-01T04:57:44;94917.94;;;6.41;100.00
6833;BME280;3454;42.654;23.378;2023-03-01T05:00:12;94889.88;;;6.33;100.00
6833;BME280;3454;42.654;23.378;2023-03-01T05:02:54;94892.16;;;6.36;100.00
6833;BME280;3454;42.654;23.378;2023-03-01T05:05:28;94891.06;;;6.40;100.00
6833;BME280;3454;42.654;23.378;2023-03-01T05:08:04;94894.59;;;6.25;100.00
6833;BME280;3454;42.654;23.378;2023-03-01T05:10:32;94905.22;;;6.43;100.00
6833;BME280;3454;42.654;23.378;2023-03-01T05:12:58;94877.09;;;6.22;100.00
6833;BME280;3454;42.654;23.378;2023-03-01T05:15:28;94902.91;;;6.40;100.00
6833;BME280;3454;42.654;23.378;2023-03-01T05:17:56;94896.63;;;6.33;100.00
6833;BME280;3454;42.654;23.378;2023-03-01T05:20:24;94889.34;;;6.28;100.00
6833;BME280;3454;42.654;23.378;2023-03-01T05:22:51;94891.78;;;6.30;100.00
6833;BME280;3454;42.654;23.378;2023-03-01T05:25:17;94888.75;;;6.37;100.00
6833;BME280;3454;42.654;23.378;2023-03-01T05:27:42;94897.03;;;6.39;100.00
6833;BME280;3454;42.654;23.378;2023-03-01T05:30:10;94909.38;;;6.44;100.00
6833;BME280;3454;42.654;23.378;2023-03-01T05:32:40;94857.41;;;6.15;100.00
6833;BME280;3454;42.654;23.378;2023-03-01T05:35:06;94921.50;;;6.51;100.00
6833;BME280;3454;42.654;23.378;2023-03-01T05:37:31;94915.84;;;6.48;100.00
6833;BME280;3454;42.654;23.378;2023-03-01T05:39:57;94913.78;;;6.40;100.00
6833;BME280;3454;42.654;23.378;2023-03-01T05:42:23;94902.22;;;6.50;100.00
6833;BME280;3454;42.654;23.378;2023-03-01T05:44:48;94940.41;;;6.84;100.00
6833;BME280;3454;42.654;23.378;2023-03-01T05:47:13;94974.38;;;6.79;100.00
6833;BME280;3454;42.654;23.378;2023-03-01T05:49:39;94985.81;;;7.10;100.00
6833;BME280;3454;42.654;23.378;2023-03-01T05:52:04;95016.53;;;7.29;100.00
6833;BME280;3454;42.654;23.378;2023-03-01T05:54:29;95005.94;;;7.24;100.00
6833;BME280;3454;42.654;23.378;2023-03-01T05:56:55;95019.88;;;7.30;100.00
6833;BME280;3454;42.654;23.378;2023-03-01T05:59:21;95023.00;;;7.33;100.00
6833;BME280;3454;42.654;23.378;2023-03-01T06:01:47;95032.53;;;7.42;100.00
6833;BME280;3454;42.654;23.378;2023-03-01T06:04:12;95027.06;;;7.36;100.00
6833;BME280;3454;42.654;23.378;2023-03-01T06:06:38;95018.19;;;7.30;100.00
6833;BME280;3454;42.654;23.378;2023-03-01T06:09:05;94988.63;;;7.06;100.00
6833;BME280;3454;42.654;23.378;2023-03-01T06:11:34;94986.50;;;7.00;100.00
6833;BME280;3454;42.654;23.378;2023-03-01T06:14:00;94985.38;;;6.91;100.00
6833;BME280;3454;42.654;23.378;2023-03-01T06:16:25;94970.13;;;6.80;100.00
6833;BME280;3454;42.654;23.378;2023-03-01T06:18:50;94971.03;;;6.79;100.00
6833;BME280;3454;42.654;23.378;2023-03-01T06:21:16;94955.56;;;6.58;100.00
6833;BME280;3454;42.654;23.378;2023-03-01T06:23:41;94941.00;;;6.49;100.00
6833;BME280;3454;42.654;23.378;2023-03-01T06:26:07;94935.75;;;6.52;100.00
6833;BME280;3454;42.654;23.378;2023-03-01T06:28:33;94933.41;;;6.49;100.00
6833;BME280;3454;42.654;23.378;2023-03-01T06:30:59;94932.53;;;6.50;100.00
6833;BME280;3454;42.654;23.378;2023-03-01T06:33:25;94920.88;;;6.35;100.00
6833;BME280;3454;42.654;23.378;2023-03-01T06:35:51;94923.28;;;6.37;100.00
6833;BME280;3454;42.654;23.378;2023-03-01T06:38:16;94909.34;;;6.31;100.00
6833;BME280;3454;42.654;23.378;2023-03-01T06:40:44;94943.91;;;6.43;100.00
6833;BME280;3454;42.654;23.378;2023-03-01T06:43:10;94936.94;;;6.47;100.00
6833;BME280;3454;42.654;23.378;2023-03-01T06:45:36;94943.81;;;6.57;100.00
6833;BME280;3454;42.654;23.378;2023-03-01T06:48:06;94963.34;;;6.68;100.00
6833;BME280;3454;42.654;23.378;2023-03-01T06:50:32;94967.41;;;6.70;100.00
6833;BME280;3454;42.654;23.378;2023-03-01T06:52:58;94948.38;;;6.52;100.00
6833;BME280;3454;42.654;23.378;2023-03-01T06:55:23;94955.44;;;6.47;100.00
6833;BME280;3454;42.654;23.378;2023-03-01T06:57:56;94959.75;;;6.45;100.00
6833;BME280;3454;42.654;23.378;2023-03-01T07:00:22;94958.16;;;6.44;100.00
6833;BME280;3454;42.654;23.378;2023-03-01T07:02:48;94959.63;;;6.34;100.00
6833;BME280;3454;42.654;23.378;2023-03-01T07:05:13;94951.38;;;6.45;100.00
6833;BME280;3454;42.654;23.378;2023-03-01T07:07:39;94957.03;;;6.36;100.00
6833;BME280;3454;42.654;23.378;2023-03-01T07:10:05;94946.31;;;6.45;100.00
6833;BME280;3454;42.654;23.378;2023-03-01T07:12:31;94957.44;;;6.55;100.00
6833;BME280;3454;42.654;23.378;2023-03-01T07:14:56;94965.34;;;6.50;100.00
6833;BME280;3454;42.654;23.378;2023-03-01T07:17:21;94954.22;;;6.53;100.00
6833;BME280;3454;42.654;23.378;2023-03-01T07:19:47;94965.47;;;6.61;100.00
6833;BME280;3454;42.654;23.378;2023-03-01T07:22:12;94954.16;;;6.79;100.00
6833;BME280;3454;42.654;23.378;2023-03-01T07:24:38;94993.06;;;6.77;100.00
6833;BME280;3454;42.654;23.378;2023-03-01T07:27:03;94964.63;;;6.61;100.00
6833;BME280;3454;42.654;23.378;2023-03-01T07:29:29;94960.91;;;6.79;100.00
6833;BME280;3454;42.654;23.378;2023-03-01T07:31:55;94976.41;;;6.74;100.00
6833;BME280;3454;42.654;23.378;2023-03-01T07:34:20;94982.88;;;7.04;100.00
6833;BME280;3454;42.654;23.378;2023-03-01T07:36:46;94983.28;;;7.10;100.00
6833;BME280;3454;42.654;23.378;2023-03-01T07:39:12;95001.56;;;7.01;100.00
6833;BME280;3454;42.654;23.378;2023-03-01T07:41:37;94984.00;;;7.12;100.00
6833;BME280;3454;42.654;23.378;2023-03-01T07:44:03;95007.66;;;7.24;100.00
6833;BME280;3454;42.654;23.378;2023-03-01T07:46:28;95019.00;;;7.18;100.00
6833;BME280;3454;42.654;23.378;2023-03-01T07:48:54;95027.28;;;7.20;100.00
6833;BME280;3454;42.654;23.378;2023-03-01T07:51:19;95023.41;;;7.27;100.00
6833;BME280;3454;42.654;23.378;2023-03-01T07:53:48;94995.00;;;7.24;100.00
6833;BME280;3454;42.654;23.378;2023-03-01T07:56:14;94980.13;;;7.32;100.00
6833;BME280;3454;42.654;23.378;2023-03-01T07:58:43;95036.47;;;7.34;100.00
6833;BME280;3454;42.654;23.378;2023-03-01T08:01:11;95038.59;;;7.40;100.00
6833;BME280;3454;42.654;23.378;2023-03-01T08:03:37;95015.25;;;7.49;100.00
6833;BME280;3454;42.654;23.378;2023-03-01T08:06:05;95037.78;;;7.52;100.00
6833;BME280;3454;42.654;23.378;2023-03-01T08:08:32;95012.31;;;7.42;100.00
6833;BME280;3454;42.654;23.378;2023-03-01T08:10:59;95009.59;;;7.33;100.00
6833;BME280;3454;42.654;23.378;2023-03-01T08:13:24;95015.13;;;7.38;100.00
6833;BME280;3454;42.654;23.378;2023-03-01T08:15:51;95012.72;;;7.24;100.00
6833;BME280;3454;42.654;23.378;2023-03-01T08:18:17;95001.88;;;7.22;100.00
6833;BME280;3454;42.654;23.378;2023-03-01T08:20:43;95008.34;;;7.26;100.00
6833;BME280;3454;42.654;23.378;2023-03-01T08:23:09;95008.06;;;7.18;100.00
6833;BME280;3454;42.654;23.378;2023-03-01T08:25:34;95005.22;;;7.22;100.00
6833;BME280;3454;42.654;23.378;2023-03-01T08:28:00;94999.78;;;7.28;100.00
6833;BME280;3454;42.654;23.378;2023-03-01T08:30:25;95016.06;;;7.37;100.00
6833;BME280;3454;42.654;23.378;2023-03-01T08:32:51;95034.97;;;7.44;100.00
6833;BME280;3454;42.654;23.378;2023-03-01T08:35:17;95017.16;;;7.45;100.00
6833;BME280;3454;42.654;23.378;2023-03-01T08:37:43;95028.59;;;7.51;100.00
6833;BME280;3454;42.654;23.378;2023-03-01T08:40:08;95057.63;;;7.58;100.00
6833;BME280;3454;42.654;23.378;2023-03-01T08:42:36;95054.59;;;7.53;100.00
6833;BME280;3454;42.654;23.378;2023-03-01T08:45:05;95068.75;;;7.55;100.00
6833;BME280;3454;42.654;23.378;2023-03-01T08:47:31;95072.38;;;7.64;100.00
6833;BME280;3454;42.654;23.378;2023-03-01T08:49:56;95071.50;;;7.52;100.00
6833;BME280;3454;42.654;23.378;2023-03-01T08:52:21;94902.34;;;8.19;100.00
6833;BME280;3454;42.654;23.378;2023-03-01T08:54:48;95100.31;;;7.88;100.00
6833;BME280;3454;42.654;23.378;2023-03-01T08:57:14;95075.63;;;7.79;100.00
6833;BME280;3454;42.654;23.378;2023-03-01T08:59:53;95058.63;;;7.68;100.00
6833;BME280;3454;42.654;23.378;2023-03-01T09:02:21;95060.34;;;7.68;100.00
6833;BME280;3454;42.654;23.378;2023-03-01T09:04:47;95014.31;;;7.62;100.00
6833;BME280;3454;42.654;23.378;2023-03-01T09:07:12;95052.13;;;7.77;100.00
6833;BME280;3454;42.654;23.378;2023-03-01T09:09:37;95043.44;;;7.81;100.00
6833;BME280;3454;42.654;23.378;2023-03-01T09:12:03;95043.19;;;7.96;100.00
6833;BME280;3454;42.654;23.378;2023-03-01T09:14:29;95067.38;;;8.00;100.00
6833;BME280;3454;42.654;23.378;2023-03-01T09:16:55;95069.22;;;7.98;100.00
6833;BME280;3454;42.654;23.378;2023-03-01T09:19:20;95070.84;;;7.87;100.00
6833;BME280;3454;42.654;23.378;2023-03-01T09:21:46;95064.06;;;7.87;100.00
6833;BME280;3454;42.654;23.378;2023-03-01T09:24:18;95026.41;;;7.95;100.00
6833;BME280;3454;42.654;23.378;2023-03-01T09:26:44;95039.88;;;7.96;100.00
6833;BME280;3454;42.654;23.378;2023-03-01T09:29:11;95034.94;;;7.69;100.00
6833;BME280;3454;42.654;23.378;2023-03-01T09:31:37;95033.91;;;7.72;100.00
6833;BME280;3454;42.654;23.378;2023-03-01T09:34:03;95002.03;;;7.82;100.00
6833;BME280;3454;42.654;23.378;2023-03-01T09:36:29;95033.53;;;7.78;100.00
6833;BME280;3454;42.654;23.378;2023-03-01T09:38:54;95021.94;;;7.86;100.00
6833;BME280;3454;42.654;23.378;2023-03-01T09:44:45;95018.09;;;7.93;100.00
6833;BME280;3454;42.654;23.378;2023-03-01T09:47:25;94988.19;;;7.62;100.00
6833;BME280;3454;42.654;23.378;2023-03-01T09:50:14;94995.03;;;7.85;100.00
6833;BME280;3454;42.654;23.378;2023-03-01T09:55:16;95008.41;;;7.87;100.00
6833;BME280;3454;42.654;23.378;2023-03-01T09:57:50;94977.59;;;7.93;100.00
6833;BME280;3454;42.654;23.378;2023-03-01T10:00:39;95020.50;;;8.07;100.00
6833;BME280;3454;42.654;23.378;2023-03-01T10:03:17;95010.84;;;8.12;100.00
6833;BME280;3454;42.654;23.378;2023-03-01T10:08:27;95018.44;;;8.12;100.00
6833;BME280;3454;42.654;23.378;2023-03-01T10:10:56;95022.09;;;8.08;100.00
6833;BME280;3454;42.654;23.378;2023-03-01T10:13:55;95023.63;;;7.98;100.00
6833;BME280;3454;42.654;23.378;2023-03-01T10:16:29;95013.31;;;8.01;100.00
6833;BME280;3454;42.654;23.378;2023-03-01T10:19:01;95008.16;;;7.90;100.00
6833;BME280;3454;42.654;23.378;2023-03-01T10:21:28;94989.97;;;7.85;100.00
6833;BME280;3454;42.654;23.378;2023-03-01T10:24:01;94980.84;;;7.95;100.00
6833;BME280;3454;42.654;23.378;2023-03-01T10:26:56;94993.34;;;8.09;100.00
6833;BME280;3454;42.654;23.378;2023-03-01T10:29:38;94981.72;;;7.94;100.00
6833;BME280;3454;42.654;23.378;2023-03-01T10:32:05;94985.59;;;8.23;100.00
6833;BME280;3454;42.654;23.378;2023-03-01T10:34:35;95022.88;;;8.21;100.00
6833;BME280;3454;42.654;23.378;2023-03-01T10:37:16;94997.75;;;8.18;100.00
6833;BME280;3454;42.654;23.378;2023-03-01T10:40:07;95008.94;;;8.16;100.00
6833;BME280;3454;42.654;23.378;2023-03-01T10:42:46;94995.31;;;8.29;100.00
6833;BME280;3454;42.654;23.378;2023-03-01T10:45:43;95015.09;;;8.48;100.00
6833;BME280;3454;42.654;23.378;2023-03-01T10:50:51;94999.53;;;8.41;100.00
6833;BME280;3454;42.654;23.378;2023-03-01T10:53:42;95035.28;;;8.61;100.00
6833;BME280;3454;42.654;23.378;2023-03-01T10:56:12;95035.88;;;8.88;100.00
6833;BME280;3454;42.654;23.378;2023-03-01T10:58:40;94934.97;;;9.26;100.00
6833;BME280;3454;42.654;23.378;2023-03-01T11:03:40;94989.41;;;10.42;100.00
6833;BME280;3454;42.654;23.378;2023-03-01T11:06:21;94915.22;;;10.69;100.00
6833;BME280;3454;42.654;23.378;2023-03-01T11:08:49;95040.09;;;10.86;100.00
6833;BME280;3454;42.654;23.378;2023-03-01T11:11:33;95139.66;;;10.71;100.00
6833;BME280;3454;42.654;23.378;2023-03-01T11:14:22;95216.66;;;10.62;100.00
6833;BME280;3454;42.654;23.378;2023-03-01T11:16:59;95124.88;;;9.98;100.00
6833;BME280;3454;42.654;23.378;2023-03-01T11:19:25;95089.56;;;9.73;100.00
6833;BME280;3454;42.654;23.378;2023-03-01T11:22:11;95092.69;;;9.99;100.00
6833;BME280;3454;42.654;23.378;2023-03-01T11:24:52;95104.91;;;9.83;100.00
6833;BME280;3454;42.654;23.378;2023-03-01T11:27:25;95087.69;;;9.64;100.00
6833;BME280;3454;42.654;23.378;2023-03-01T11:32:42;95023.28;;;9.32;100.00
6833;BME280;3454;42.654;23.378;2023-03-01T11:35:17;95016.13;;;9.15;100.00
6833;BME280;3454;42.654;23.378;2023-03-01T11:37:59;95019.81;;;9.11;100.00
6833;BME280;3454;42.654;23.378;2023-03-01T11:40:35;95008.53;;;9.15;100.00
6833;BME280;3454;42.654;23.378;2023-03-01T11:43:15;95027.66;;;9.19;100.00
6833;BME280;3454;42.654;23.378;2023-03-01T11:57:27;94921.91;;;8.86;100.00
6833;BME280;3454;42.654;23.378;2023-03-01T12:08:32;94965.75;;;9.10;100.00
6833;BME280;3454;42.654;23.378;2023-03-01T12:16:59;95021.94;;;9.61;100.00
6833;BME280;3454;42.654;23.378;2023-03-01T12:20:02;95012.94;;;9.79;100.00
6833;BME280;3454;42.654;23.378;2023-03-01T12:30:39;94943.50;;;9.25;100.00
6833;BME280;3454;42.654;23.378;2023-03-01T12:38:48;94908.34;;;9.20;100.00
6833;BME280;3454;42.654;23.378;2023-03-01T12:49:23;94958.03;;;9.67;100.00
6833;BME280;3454;42.654;23.378;2023-03-01T12:51:59;94921.34;;;9.38;100.00
6833;BME280;3454;42.654;23.378;2023-03-01T12:54:29;94956.41;;;9.66;100.00
6833;BME280;3454;42.654;23.378;2023-03-01T12:56:57;94970.25;;;9.73;100.00
6833;BME280;3454;42.654;23.378;2023-03-01T13:02:17;94981.19;;;9.85;100.00
6833;BME280;3454;42.654;23.378;2023-03-01T13:05:02;94984.91;;;9.81;100.00
6833;BME280;3454;42.654;23.378;2023-03-01T13:08:07;94949.97;;;9.51;100.00
6833;BME280;3454;42.654;23.378;2023-03-01T13:13:11;94951.34;;;9.55;100.00
6833;BME280;3454;42.654;23.378;2023-03-01T13:15:39;94955.13;;;9.50;100.00
6833;BME280;3454;42.654;23.378;2023-03-01T13:26:12;94956.53;;;9.20;100.00
6833;BME280;3454;42.654;23.378;2023-03-01T13:31:26;94941.66;;;9.49;100.00
6833;BME280;3454;42.654;23.378;2023-03-01T13:34:00;94983.06;;;9.39;100.00
6833;BME280;3454;42.654;23.378;2023-03-01T13:47:14;94973.69;;;9.72;100.00
6833;BME280;3454;42.654;23.378;2023-03-01T13:50:01;94968.06;;;9.69;100.00
6833;BME280;3454;42.654;23.378;2023-03-01T13:55:24;94947.66;;;9.48;100.00
6833;BME280;3454;42.654;23.378;2023-03-01T13:57:56;94925.63;;;9.49;100.00
6833;BME280;3454;42.654;23.378;2023-03-01T14:00:35;94882.50;;;9.38;100.00
6833;BME280;3454;42.654;23.378;2023-03-01T14:03:12;94885.38;;;9.22;100.00
6833;BME280;3454;42.654;23.378;2023-03-01T14:05:40;94908.22;;;9.44;100.00
6833;BME280;3454;42.654;23.378;2023-03-01T14:08:22;94905.91;;;9.41;100.00
6833;BME280;3454;42.654;23.378;2023-03-01T14:11:29;94904.28;;;9.51;100.00
6833;BME280;3454;42.654;23.378;2023-03-01T14:13:58;94898.63;;;9.25;100.00
6833;BME280;3454;42.654;23.378;2023-03-01T14:16:37;94878.47;;;9.24;100.00
6833;BME280;3454;42.654;23.378;2023-03-01T14:19:19;94889.06;;;9.40;100.00
6833;BME280;3454;42.654;23.378;2023-03-01T14:22:13;94899.69;;;9.12;100.00
6833;BME280;3454;42.654;23.378;2023-03-01T14:24:54;94848.63;;;9.05;100.00
6833;BME280;3454;42.654;23.378;2023-03-01T14:27:21;94859.94;;;8.90;100.00
6833;BME280;3454;42.654;23.378;2023-03-01T14:30:02;94843.78;;;8.80;100.00
6833;BME280;3454;42.654;23.378;2023-03-01T14:32:30;94825.00;;;8.72;100.00
6833;BME280;3454;42.654;23.378;2023-03-01T14:34:58;94798.41;;;8.66;100.00
6833;BME280;3454;42.654;23.378;2023-03-01T14:37:34;94754.03;;;8.72;100.00
6833;BME280;3454;42.654;23.378;2023-03-01T14:40:03;94740.22;;;8.42;100.00
6833;BME280;3454;42.654;23.378;2023-03-01T14:42:34;94739.97;;;8.57;100.00
6833;BME280;3454;42.654;23.378;2023-03-01T14:45:00;94754.50;;;8.55;100.00
6833;BME280;3454;42.654;23.378;2023-03-01T14:47:30;94758.19;;;8.51;100.00
6833;BME280;3454;42.654;23.378;2023-03-01T14:50:03;94757.72;;;8.57;100.00
6833;BME280;3454;42.654;23.378;2023-03-01T14:52:39;94748.50;;;8.44;100.00
6833;BME280;3454;42.654;23.378;2023-03-01T14:55:16;94733.06;;;8.36;100.00
6833;BME280;3454;42.654;23.378;2023-03-01T14:57:44;94731.47;;;8.35;100.00
6833;BME280;3454;42.654;23.378;2023-03-01T15:00:18;94713.59;;;8.15;100.00
6833;BME280;3454;42.654;23.378;2023-03-01T15:02:47;94710.47;;;8.22;100.00
6833;BME280;3454;42.654;23.378;2023-03-01T15:05:14;94714.22;;;8.29;100.00
6833;BME280;3454;42.654;23.378;2023-03-01T15:07:43;94749.22;;;8.35;100.00
6833;BME280;3454;42.654;23.378;2023-03-01T15:10:20;94723.13;;;8.22;100.00
6833;BME280;3454;42.654;23.378;2023-03-01T15:12:46;94742.88;;;8.30;100.00
6833;BME280;3454;42.654;23.378;2023-03-01T15:18:03;94741.50;;;8.26;100.00
6833;BME280;3454;42.654;23.378;2023-03-01T15:20:32;94757.69;;;8.23;100.00
6833;BME280;3454;42.654;23.378;2023-03-01T15:23:01;94764.97;;;8.28;100.00
6833;BME280;3454;42.654;23.378;2023-03-01T15:25:29;94747.13;;;8.29;100.00
6833;BME280;3454;42.654;23.378;2023-03-01T15:27:57;94748.97;;;8.27;100.00